Billie H — WCY4992 — position and weather

sailwx.info

Track history (hours):
 
Tides and Currents Weather Stations Pressure Air Temp Water Temp Dewpoint Dewpoint Depression Visibility Wind Speed Wind Dir Waves Ship Positions

Billie H

Owner: BOYER TOWING INC, KETCHIKAN, AK. More information available from US FCC via Universal Licensing System and Coast Guard Vessel Documentation Center.

Last reported at 2014-Oct-23 06:00 UTC. Time now 2014-Oct-26 07:08 UTC.
Position N 58°36' W 151°06'.

Type: Tug. MMSI: 366751770.

Wind from 320 at 33 knots

Barometer 993.0 mb
Air temperature 6.7 ° C
Visibility: greater than 5.4 NM

Date/timePositionNaut miles runAvg speedWind from/ knotsBaromVisibWave heightAir tempDewpointWater temp
2014-Oct-23 06:00N 58°36' W 151°06'331 6.9 320 / 33993.0 5.4 6.7
2014-Oct-21 06:00N 59°18' W 140°30'122 6.8 090 / 5990.0 5.4 0.5 8.9
2014-Oct-20 12:00N 58°18' W 137°06'24 5.3 130 / 25985.9 5.4 9.4
2014-Oct-20 07:23N 58°17' W 136°20'6 7.1
2014-Oct-20 06:32N 58°15' W 136°09'6 5.9
2014-Oct-20 05:33N 58°16' W 135°58'7 6.6
2014-Oct-20 04:33N 58°18' W 135°46'  
2014-Oct-15 15:31N 58°17' W 135°43'7 7.2
2014-Oct-15 14:31N 58°16' W 135°57'7 7.7
2014-Oct-15 13:33N 58°16' W 136°11'55 7.2
2014-Oct-15 06:00N 58°36' W 137°48'0 0.6 999 / 5994.0 5.4 8.9
2014-Oct-15 05:16N 58°36' W 137°48'27 7.1
2014-Oct-15 01:28N 58°59' W 138°17'  
Track history (hours):
 
Tides and Currents Weather Stations Pressure Air Temp Water Temp Dewpoint Dewpoint Depression Visibility Wind Speed Wind Dir Waves Ship Positions

Billie H

Owner: BOYER TOWING INC, KETCHIKAN, AK. More information available from US FCC via Universal Licensing System and Coast Guard Vessel Documentation Center.

Last reported at 2014-Oct-23 06:00 UTC. Time now 2014-Oct-26 07:08 UTC.
Position N 58°36' W 151°06'.

Type: Tug. MMSI: 366751770.

Wind from 320 at 33 knots

Barometer 993.0 mb
Air temperature 6.7 ° C
Visibility: greater than 5.4 NM

Date/timePositionNaut miles runAvg speedWind from/ knotsBaromVisibWave heightAir tempDewpointWater temp
2014-Oct-23 06:00N 58°36' W 151°06'331 6.9 320 / 33993.0 5.4 6.7
2014-Oct-21 06:00N 59°18' W 140°30'122 6.8 090 / 5990.0 5.4 0.5 8.9
2014-Oct-20 12:00N 58°18' W 137°06'24 5.3 130 / 25985.9 5.4 9.4
2014-Oct-20 07:23N 58°17' W 136°20'6 7.1
2014-Oct-20 06:32N 58°15' W 136°09'6 5.9
2014-Oct-20 05:33N 58°16' W 135°58'7 6.6
2014-Oct-20 04:33N 58°18' W 135°46'  
2014-Oct-15 15:31N 58°17' W 135°43'7 7.2
2014-Oct-15 14:31N 58°16' W 135°57'7 7.7
2014-Oct-15 13:33N 58°16' W 136°11'55 7.2
2014-Oct-15 06:00N 58°36' W 137°48'0 0.6 999 / 5994.0 5.4 8.9
2014-Oct-15 05:16N 58°36' W 137°48'27 7.1
2014-Oct-15 01:28N 58°59' W 138°17'  

Dump ship's entire track history